Flight Track Log - Related Links

Times and Time Zones

All times are in EDT time to prevent confusion due to time zone crossing. See the CSJ672 flight status page for this flight to view local times or setup timezone preferences in your user account.

Time Position Orientation Groundspeed Altitude Reporting Facility
EDT Latitude Longitude Course Direction KTS MPH feet Rate Location/Type
Fri 11:32:41 PM 43.1500 -79.9333 236° Southwest 80 92 1,300  Level Toronto Center
Fri 11:33:41 PM 43.1333 -79.9500 216° Southwest 90 104 2,500 1,300 Climbing Toronto Center
Fri 11:34:41 PM 43.1167 -79.9833 236° Southwest 90 104 3,900 1,250 Climbing Toronto Center
Fri 11:35:41 PM 43.1000 -79.9833 180° South 90 104 5,000 1,200 Climbing Toronto Center
Fri 11:36:41 PM 43.0667 -80.0000 200° South 90 104 6,300 1,200 Climbing Toronto Center
Fri 11:37:41 PM 43.0500 -80.0167 216° Southwest 90 104 7,400 850 Climbing Toronto Center
Fri 11:38:41 PM 43.0333 -80.0167 180° South 90 104 8,000 350 Climbing Toronto Center
Fri 11:39:41 PM 43.0000 -80.0500 216° Southwest 130 150 8,100  Climbing Toronto Center
Fri 11:40:41 PM 42.9667 -80.0667 200° South 140 161 8,000 -50 Descending Toronto Center
Fri 11:41:41 PM 42.9167 -80.1167 216° Southwest 150 173 8,000  Level Toronto Center
Fri 11:42:41 PM 42.8833 -80.1333 200° South 150 173 8,000  Level Toronto Center
Fri 11:43:41 PM 42.8500 -80.1500 200° South 150 173 8,000  Level Toronto Center
Fri 11:44:41 PM 42.8167 -80.1833 216° Southwest 150 173 8,000 50 Level Toronto Center
Fri 11:45:41 PM 42.7667 -80.2000 194° South 150 173 8,100  Climbing Toronto Center
Fri 11:46:41 PM 42.7333 -80.2167 200° South 150 173 8,000 -50 Descending Toronto Center
Fri 11:47:41 PM 42.7000 -80.2500 216° Southwest 150 173 8,000  Level Toronto Center
Fri 11:48:41 PM 42.6667 -80.2667 200° South 150 173 8,000  Level Toronto Center
Fri 11:49:41 PM 42.6167 -80.2833 194° South 150 173 8,000  Level Toronto Center
Fri 11:50:41 PM 42.5833 -80.3167 216° Southwest 150 173 8,000 50 Level Toronto Center
Fri 11:51:41 PM 42.5500 -80.3333 200° South 150 173 8,100  Climbing Toronto Center
Fri 11:52:41 PM 42.5167 -80.3500 200° South 150 173 8,000 -50 Descending Toronto Center
Fri 11:53:41 PM 42.4667 -80.4000 216° Southwest 150 173 8,000  Level Toronto Center
Fri 11:54:41 PM 42.4333 -80.4167 200° South 150 173 8,000  Level Toronto Center
Fri 11:55:41 PM 42.4000 -80.4500 216° Southwest 150 173 8,000 50 Level Toronto Center
Fri 11:56:41 PM 42.3667 -80.4667 200° South 140 161 8,100 50 Climbing Toronto Center
Fri 11:57:41 PM 42.3333 -80.5167 228° Southwest 150 173 8,100 -54 Level Toronto Center
Fri 11:58:33 PM 42.3058 -80.5494 221° Southwest 159 183 8,000 -53 Descending Cleveland Center
Fri 11:59:34 PM 42.2664 -80.5692 200° South 147 169 8,000  Level Cleveland Center
Sat 12:00:33 AM 42.2308 -80.5917 205° Southwest 152 175 8,000  Level Cleveland Center
Sat 12:01:33 AM 42.1975 -80.6139 206° Southwest 152 175 8,000  Level Cleveland Center
Sat 12:02:34 AM 42.1581 -80.6364 203° Southwest 152 175 8,000  Level Cleveland Center
Sat 12:03:34 AM 42.1206 -80.6617 207° Southwest 152 175 8,000  Level Cleveland Center
Sat 12:04:33 AM 42.0828 -80.6867 206° Southwest 157 181 8,000  Level Cleveland Center
Sat 12:05:34 AM 42.0494 -80.7061 203° Southwest 152 175 8,000  Level Cleveland Center
Sat 12:06:34 AM 42.0119 -80.7314 207° Southwest 152 175 8,000  Level Cleveland Center
Sat 12:07:33 AM 41.9764 -80.7536 205° Southwest 152 175 8,000  Level Cleveland Center
Sat 12:08:33 AM 41.9389 -80.7814 209° Southwest 152 175 8,000 50 Level Cleveland Center
Sat 12:09:34 AM 41.8972 -80.8064 204° Southwest 152 175 8,100 50 Climbing Cleveland Center
Sat 12:10:33 AM 41.8617 -80.8286 205° Southwest 152 175 8,100  Level Cleveland Center
Sat 12:11:33 AM 41.8219 -80.8506 202° Southwest 152 175 8,100  Level Cleveland Center
Sat 12:12:34 AM 41.7844 -80.8700 201° Southwest 152 175 8,100  Level Cleveland Center
Sat 12:13:33 AM 41.7489 -80.8947 207° Southwest 152 175 8,100  Level Cleveland Center
Sat 12:14:33 AM 41.7136 -80.9197 208° Southwest 152 175 8,100  Level Cleveland Center
Sat 12:15:33 AM 41.6758 -80.9444 206° Southwest 152 175 8,100  Level Cleveland Center
Sat 12:16:33 AM 41.6383 -80.9694 206° Southwest 152 175 8,100  Level Cleveland Center
Sat 12:17:33 AM 41.6050 -80.9914 206° Southwest 152 175 8,100  Level Cleveland Center
Sat 12:18:33 AM 41.5736 -81.0133 208° Southwest 152 175 8,100  Level Cleveland Center
Sat 12:19:33 AM 41.5381 -81.0381 207° Southwest 146 168 8,100  Level Cleveland Center
Sat 12:20:33 AM 41.5025 -81.0600 205° Southwest 146 168 8,100  Level Cleveland Center
Sat 12:21:33 AM 41.4669 -81.0847 208° Southwest 146 168 8,100  Level Cleveland Center
Sat 12:22:33 AM 41.4314 -81.1094 208° Southwest 146 168 8,100  Level Cleveland Center
Sat 12:23:33 AM 41.3917 -81.1367 207° Southwest 146 168 8,100 -200 Level Cleveland Center
Sat 12:24:33 AM 41.3478 -81.1472 190° South 153 176 7,700 -550 Descending Cleveland Center
Sat 12:25:33 AM 41.3019 -81.1581 190° South 159 183 7,000 -750 Descending Cleveland Center
Sat 12:26:33 AM 41.2581 -81.1658 188° South 164 189 6,200 -750 Descending Cleveland Center
Sat 12:27:33 AM 41.2142 -81.1794 193° South 164 189 5,500 -800 Descending Cleveland Center
Sat 12:28:33 AM 41.1683 -81.1872 187° South 164 189 4,600 -750 Descending Cleveland Center
Sat 12:29:33 AM 41.1203 -81.2006 192° South 164 189 4,000 -600 Descending Cleveland Center
Sat 12:30:33 AM 41.0764 -81.2139 193° South 164 189 3,400 -500 Descending Cleveland Center
Sat 12:31:33 AM 41.0511 -81.2522 229° Southwest 152 175 3,000 -150 Descending Cleveland Center
Sat 12:32:33 AM 41.0261 -81.2850 225° Southwest 146 168 3,100  Climbing Cleveland Center
Sat 12:33:33 AM 40.9986 -81.3258 228° Southwest 146 168 3,000 -50 Descending Cleveland Center
Sat 12:34:33 AM 40.9817 -81.3533 231° Southwest 118 136 3,000 -250 Level Cleveland Center
Sat 12:35:33 AM 40.9586 -81.3831 224° Southwest 113 130 2,500 -600 Descending Cleveland Center
Sat 12:36:33 AM 40.9333 -81.4158 224° Southwest 118 136 1,800 -550 Descending Cleveland Center
Sat 12:37:33 AM 40.9167 -81.4403 228° Southwest 118 136 1,400 -400 Descending Cleveland Center
Sat 12:39:00 AM 40.9151 -81.4436 North  Level Estimated
Sat 12:46:00 AM 40.9151 -81.4436 North  Level Estimated

Login

Don't have an account? Register now (free) for customized features, flight alerts, and more!